Time;durP1;ratioP1;P1;durP2;ratioP2;P2;SDS_P1;SDS_P2;PMS_P1;PMS_P2;Temp;Humidity;BMP_temperature;BMP_pressure;BME280_temperature;BME280_humidity;BME280_pressure;Samples;Min_cycle;Max_cycle;Signal;HPM_P1;HPM_P2
2022/05/19 00:00:00;;;;;;;3.28;2.83;;;22.50;58.00;;;22.73;76.85;100830.19;4966513;28;20074;-73
2022/05/19 00:02:38;;;;;;;2.55;2.20;;;22.40;58.50;;;22.56;80.28;100834.03;4968015;28;20047;-72
2022/05/19 00:05:09;;;;;;;3.08;2.28;;;22.40;58.50;;;22.50;80.87;100839.78;4949986;28;20051;-73
2022/05/19 00:07:39;;;;;;;5.45;2.90;;;22.40;58.70;;;22.41;82.47;100841.25;4967568;28;20113;-73
2022/05/19 00:10:07;;;;;;;4.57;2.25;;;22.30;59.00;;;22.27;83.81;100834.13;4966361;28;20129;-73
2022/05/19 00:12:35;;;;;;;4.88;2.58;;;22.20;59.20;;;22.34;81.62;100835.44;4967685;28;20078;-73
2022/05/19 00:15:04;;;;;;;4.07;2.60;;;22.20;59.30;;;22.25;83.42;100833.38;4966955;28;20496;-73
2022/05/19 00:17:34;;;;;;;4.10;2.70;;;22.10;59.60;;;22.12;87.33;100827.09;4951202;28;20527;-73
2022/05/19 00:20:04;;;;;;;;;;;22.00;60.30;;;22.05;87.38;100832.00;4950984;28;20573;-73
2022/05/19 00:22:31;;;;;;;3.30;2.63;;;21.90;60.40;;;22.05;86.63;100835.53;4968593;28;19930;-73
2022/05/19 00:24:58;;;;;;;4.95;2.85;;;21.90;60.70;;;22.04;86.62;100828.44;4966704;28;20137;-73
2022/05/19 00:27:28;;;;;;;3.78;3.13;;;21.90;60.90;;;21.99;87.70;100832.38;4967199;28;20050;-72
2022/05/19 00:29:55;;;;;;;4.53;2.92;;;21.80;61.30;;;21.85;88.92;100831.44;4966014;28;20039;-73
2022/05/19 00:32:24;;;;;;;3.08;2.65;;;21.70;61.50;;;21.79;89.57;100826.50;4966987;28;20042;-72
2022/05/19 00:34:51;;;;;;;4.47;3.28;;;21.70;62.00;;;21.84;88.89;100826.22;4950926;28;20038;-73
2022/05/19 00:37:18;;;;;;;3.13;2.65;;;21.70;62.10;;;21.75;89.87;100820.47;4966793;28;20535;-73
2022/05/19 00:39:46;;;;;;;4.82;2.50;;;21.60;62.40;;;21.74;89.74;100816.06;4967418;28;20514;-73
2022/05/19 00:45:03;;;;;;;3.25;2.85;;;21.50;63.10;;;21.68;89.58;100811.13;4982696;28;20504;-72
2022/05/19 00:47:41;;;;;;;4.70;2.72;;;21.50;63.20;;;21.51;91.74;100804.13;4966866;28;20152;-73
2022/05/19 00:50:34;;;;;;;5.65;2.95;;;21.40;63.80;;;21.53;91.48;100808.44;4966170;28;20057;-73
2022/05/19 00:53:38;;;;;;;3.83;2.85;;;21.40;64.10;;;21.64;89.89;100801.56;4966910;28;20045;-73
2022/05/19 00:56:15;;;;;;;2.90;2.53;;;21.40;64.10;;;21.63;88.50;100795.31;4968192;28;20670;-72
2022/05/19 00:59:08;;;;;;;3.45;2.42;;;21.30;64.20;;;21.70;85.25;100806.53;4966734;28;20623;-73
2022/05/19 01:01:42;;;;;;;7.78;2.85;;;21.40;64.30;;;21.60;88.27;100806.22;4951262;28;20078;-72
2022/05/19 01:04:43;;;;;;;4.85;2.65;;;21.30;65.00;;;21.62;87.37;100803.44;4966646;28;20137;-73
2022/05/19 01:07:18;;;;;;;3.58;2.53;;;21.30;65.00;;;21.57;86.99;100800.19;4982862;28;20055;-73
2022/05/19 01:09:46;;;;;;;3.30;2.53;;;21.30;64.90;;;21.47;88.56;100805.28;4966066;28;20047;-73
2022/05/19 01:12:14;;;;;;;4.00;2.75;;;21.30;65.30;;;21.38;89.59;100806.72;4967022;28;20078;-73
2022/05/19 01:14:41;;;;;;;3.10;2.75;;;21.20;65.50;;;21.24;91.79;100805.75;4950742;28;20054;-73
2022/05/19 01:17:08;;;;;;;3.67;2.63;;;21.20;66.00;;;21.23;91.65;100814.75;4966985;28;20057;-73
2022/05/19 01:19:52;;;;;;;3.20;2.60;;;21.10;66.30;;;21.28;89.89;100798.41;4965350;28;20051;-73
2022/05/19 01:23:09;;;;;;;5.43;2.72;;;21.10;66.30;;;21.32;88.64;100807.13;4967691;28;20043;-73
2022/05/19 01:26:17;;;;;;;6.47;2.90;;;21.00;66.60;;;21.29;89.74;100801.94;4969278;28;20046;-73
2022/05/19 01:28:45;;;;;;;4.40;2.85;;;21.00;66.90;;;21.10;91.30;100793.25;4965760;28;20047;-73
2022/05/19 01:31:43;;;;;;;4.72;2.63;;;21.00;67.40;;;21.16;90.65;100797.38;4966731;28;20049;-73
2022/05/19 01:34:11;;;;;;;5.20;3.05;;;20.90;67.60;;;21.10;89.82;100789.72;4982286;28;20674;-73
2022/05/19 01:36:38;;;;;;;2.97;2.60;;;20.90;67.70;;;21.10;89.89;100789.72;4950784;28;20046;-73
2022/05/19 01:39:13;;;;;;;4.38;2.72;;;20.80;67.80;;;21.10;90.78;100790.59;4965476;28;20049;-73
2022/05/19 01:42:15;;;;;;;3.88;3.00;;;20.80;68.20;;;21.11;89.66;100788.75;4966775;28;20074;-73
2022/05/19 01:44:51;;;;;;;5.78;2.88;;;20.80;68.90;;;21.12;88.17;100785.13;4967648;28;20046;-74
2022/05/19 01:47:41;;;;;;;3.80;2.78;;;20.80;68.40;;;21.10;90.05;100779.88;4968282;28;20050;-73
2022/05/19 01:50:24;;;;;;;;;;;20.80;69.00;;;21.13;89.80;100784.16;4965662;28;20051;-73
2022/05/19 01:53:34;;;;;;;5.07;2.70;;;20.80;69.10;;;21.04;90.43;100787.44;4967979;28;19932;-73
2022/05/19 01:56:16;;;;;;;5.20;2.70;;;20.80;69.20;;;21.05;88.67;100786.47;4970609;28;20445;-73
2022/05/19 01:58:58;;;;;;;3.85;2.65;;;20.70;68.90;;;20.92;90.79;100787.22;4957594;28;20729;-73
2022/05/19 02:01:27;;;;;;;3.45;2.65;;;20.70;69.60;;;20.81;91.94;100781.66;4978776;28;20051;-73
2022/05/19 02:04:22;;;;;;;3.83;2.67;;;20.60;69.90;;;20.76;92.92;100781.06;4970377;28;20042;-73
2022/05/19 02:07:00;;;;;;;3.72;2.30;;;20.60;70.30;;;20.66;92.64;100781.59;4969512;28;20154;-73
2022/05/19 02:09:40;;;;;;;3.60;2.70;;;21.20;71.20;;;20.61;93.64;100778.34;4968482;28;20053;-73
2022/05/19 02:12:08;;;;;;;6.75;3.58;;;20.50;70.90;;;20.66;93.32;100784.25;4967906;28;20046;-73
2022/05/19 02:14:42;;;;;;;3.00;2.70;;;20.40;71.20;;;20.55;93.66;100776.06;4969146;28;20051;-73
2022/05/19 02:17:16;;;;;;;3.47;2.83;;;20.50;71.70;;;20.60;93.39;100779.31;4969422;28;20786;-73
2022/05/19 02:19:48;;;;;;;2.97;2.70;;;20.40;71.90;;;20.63;92.64;100780.94;4968734;28;20074;-73
2022/05/19 02:22:23;;;;;;;5.65;3.00;;;20.40;71.90;;;20.57;91.51;100775.94;4969137;28;20051;-73
2022/05/19 02:25:00;;;;;;;3.83;2.63;;;20.30;72.10;;;20.52;94.59;100784.22;4968899;28;20077;-73
2022/05/19 02:27:42;;;;;;;2.63;2.42;;;20.30;72.60;;;20.52;92.56;100785.09;4953572;28;20058;-73
2022/05/19 02:30:16;;;;;;;5.18;2.72;;;20.30;72.40;;;20.46;94.07;100782.81;4953096;28;20054;-73
2022/05/19 02:32:43;;;;;;;4.75;2.65;;;20.30;73.20;;;20.34;95.19;100783.53;4969840;28;20133;-73
2022/05/19 02:35:12;;;;;;;3.92;2.60;;;20.20;73.20;;;20.33;94.65;100781.81;4969042;28;20046;-73
2022/05/19 02:37:41;;;;;;;5.22;3.28;;;20.20;73.30;;;20.27;95.86;100789.22;4969305;28;20451;-73
2022/05/19 02:40:12;;;;;;;5.68;3.22;;;20.10;73.60;;;20.19;96.65;100790.59;4974674;28;20165;-73
2022/05/19 02:42:39;;;;;;;3.75;2.95;;;20.10;73.90;;;20.13;96.40;100789.13;4976544;28;20125;-73
2022/05/19 02:45:08;;;;;;;3.22;2.45;;;20.00;74.20;;;20.17;94.57;100797.84;4968790;28;20047;-73
2022/05/19 02:47:35;;;;;;;5.28;3.10;;;20.00;73.90;;;20.15;95.81;100791.75;4969550;28;20050;-73
2022/05/19 02:50:03;;;;;;;4.97;2.97;;;20.00;74.50;;;20.09;96.92;100788.47;4969518;28;20424;-73
2022/05/19 02:52:30;;;;;;;7.35;3.15;;;19.90;74.80;;;20.07;96.65;100781.50;4969879;28;20050;-75
2022/05/19 02:54:57;;;;;;;5.07;2.75;;;19.90;74.90;;;19.97;98.03;100774.00;4952513;28;20137;-73
2022/05/19 02:57:24;;;;;;;6.65;3.20;;;19.80;75.40;;;19.94;96.72;100774.19;4968601;28;20046;-73
2022/05/19 02:59:51;;;;;;;3.85;2.65;;;19.80;75.30;;;19.90;97.85;100775.28;4983966;28;20046;-73
2022/05/19 03:02:18;;;;;;;3.28;2.65;;;20.10;76.00;;;19.89;97.28;100781.56;4969083;28;20058;-73
2022/05/19 03:04:46;;;;;;;4.47;3.05;;;19.80;75.90;;;19.89;96.25;100776.22;4967806;28;20109;-73
2022/05/19 03:07:12;;;;;;;3.30;2.60;;;19.70;75.90;;;19.93;95.45;100783.13;4984654;28;20054;-73
2022/05/19 03:09:45;;;;;;;5.28;2.90;;;19.70;75.80;;;19.87;95.98;100787.94;4967558;28;20050;-73
2022/05/19 03:12:13;;;;;;;3.17;2.75;;;19.70;76.10;;;19.86;95.96;100781.75;4969429;28;20055;-73
2022/05/19 03:14:40;;;;;;;5.13;3.00;;;19.60;76.10;;;19.79;96.56;100778.56;4968106;28;20122;-73
2022/05/19 03:17:09;;;;;;;3.28;2.92;;;19.70;76.40;;;19.81;95.60;100767.78;4968576;28;20050;-73
2022/05/19 03:19:37;;;;;;;5.30;2.88;;;19.60;76.40;;;19.73;96.93;100770.03;4967282;28;20042;-73
2022/05/19 03:22:06;;;;;;;3.28;2.80;;;19.60;76.70;;;19.68;95.23;100772.97;4968497;28;20038;-73
2022/05/19 03:24:33;;;;;;;3.40;2.53;;;19.50;76.40;;;19.76;94.98;100777.88;4967659;28;20049;-73
2022/05/19 03:27:01;;;;;;;4.50;2.90;;;19.50;76.80;;;19.72;95.47;100771.00;4984219;28;20800;-73
2022/05/19 03:29:28;;;;;;;4.90;2.90;;;19.50;76.80;;;19.70;93.41;100771.06;4967163;28;20039;-73
2022/05/19 03:31:55;;;;;;;3.38;2.55;;;19.50;76.40;;;19.67;94.43;100773.91;4968487;28;20062;-73
2022/05/19 03:34:22;;;;;;;3.33;2.58;;;19.50;76.60;;;19.63;95.77;100775.88;4967665;28;20053;-73
2022/05/19 03:36:49;;;;;;;3.90;2.83;;;19.50;77.00;;;19.60;94.86;100776.06;4952116;28;20488;-73
2022/05/19 03:39:16;;;;;;;4.82;3.08;;;19.40;77.00;;;19.64;92.71;100776.75;4967904;28;20590;-73
2022/05/19 03:41:43;;;;;;;4.85;3.25;;;19.40;76.80;;;19.58;95.88;100771.75;4968049;28;20035;-73
2022/05/19 03:44:12;;;;;;;5.22;2.85;;;19.40;77.40;;;19.53;95.04;100772.03;4936343;28;20626;-73
2022/05/19 03:46:39;;;;;;;3.35;2.60;;;19.30;77.20;;;19.55;94.90;100770.13;4983975;28;20050;-73
2022/05/19 03:49:08;;;;;;;5.90;2.92;;;19.40;77.80;;;19.52;96.07;100779.16;4982562;28;20416;-73
2022/05/19 03:51:36;;;;;;;4.68;2.92;;;19.30;78.00;;;19.45;96.84;100771.56;4981669;28;20046;-73
2022/05/19 03:54:03;;;;;;;4.90;2.80;;;19.30;78.00;;;19.37;98.18;100778.19;4967272;28;20489;-73
2022/05/19 03:56:31;;;;;;;7.15;3.08;;;19.30;78.40;;;19.31;97.32;100775.84;4967052;28;20062;-73
2022/05/19 03:58:58;;;;;;;11.05;3.10;;;19.20;78.50;;;19.27;98.81;100779.63;4968220;28;20051;-73
2022/05/19 04:01:26;;;;;;;4.82;2.75;;;19.20;79.00;;;19.25;98.80;100771.69;4966494;28;20061;-73
2022/05/19 04:03:54;;;;;;;3.50;2.20;;;19.10;79.00;;;19.23;97.75;100781.59;4967857;28;20403;-73
2022/05/19 04:06:23;;;;;;;4.82;3.10;;;19.10;79.10;;;19.20;99.39;100773.78;4968932;28;20054;-73
2022/05/19 04:08:50;;;;;;;3.67;3.08;;;19.10;79.50;;;19.16;100.00;100777.56;4966887;28;20781;-73
2022/05/19 04:11:18;;;;;;;3.22;2.60;;;19.00;79.80;;;19.16;99.76;100769.56;4983422;28;20051;-73
2022/05/19 04:13:45;;;;;;;6.85;2.88;;;19.00;79.90;;;19.25;99.59;100779.69;4974413;28;20578;-73
2022/05/19 04:16:12;;;;;;;3.78;3.00;;;19.00;80.30;;;19.19;99.79;100766.72;4964692;28;20688;-75
2022/05/19 04:18:39;;;;;;;5.75;2.65;;;19.00;80.30;;;19.28;98.16;100778.69;4975032;28;20117;-75
2022/05/19 04:21:06;;;;;;;5.03;2.70;;;19.00;80.10;;;19.25;97.65;100769.03;4968199;28;20042;-77
2022/05/19 04:23:33;;;;;;;4.00;2.75;;;19.00;80.30;;;19.29;99.23;100776.91;4992204;28;20039;-72
2022/05/19 04:26:00;;;;;;;3.70;2.60;;;19.10;80.70;;;19.22;98.80;100779.88;4977074;28;20042;-77
2022/05/19 04:28:28;;;;;;;6.93;3.25;;;19.00;80.70;;;19.27;97.31;100779.63;4978657;28;20073;-77
2022/05/19 04:30:56;;;;;;;3.65;2.70;;;19.00;80.60;;;19.18;99.65;100785.44;4971804;28;20045;-77
2022/05/19 04:33:23;;;;;;;4.32;2.80;;;19.00;80.70;;;19.19;99.15;100790.72;4973831;28;20636;-77
2022/05/19 04:35:50;;;;;;;3.47;2.80;;;19.00;80.70;;;19.22;97.79;100792.38;4970131;28;20050;-77
2022/05/19 04:38:18;;;;;;;6.22;2.63;;;19.00;80.70;;;19.20;99.79;100797.78;4984025;28;20043;-75
2022/05/19 04:40:49;;;;;;;4.00;2.88;;;19.00;81.10;;;19.22;99.68;100795.88;4966960;28;20142;-77
2022/05/19 04:43:23;;;;;;;3.83;2.78;;;19.00;81.10;;;19.23;98.97;100794.09;4966940;28;20511;-76
2022/05/19 04:45:52;;;;;;;4.90;2.90;;;19.00;81.30;;;19.28;97.47;100808.03;4967678;28;20134;-76
2022/05/19 04:48:22;;;;;;;6.03;3.17;;;19.00;81.40;;;19.27;98.64;100806.31;4951046;28;20050;-76
2022/05/19 04:50:55;;;;;;;3.63;3.00;;;19.00;81.30;;;19.25;99.60;100813.53;4967156;28;20057;-77
2022/05/19 04:53:23;;;;;;;3.67;2.70;;;19.00;81.90;;;19.25;99.44;100814.38;4967290;28;20043;-76
2022/05/19 04:55:53;;;;;;;3.78;2.58;;;19.00;81.80;;;19.26;99.59;100815.25;4967077;28;20412;-76
2022/05/19 04:58:21;;;;;;;;;;;19.00;81.80;;;19.30;99.01;100822.16;4967929;28;20051;-75
2022/05/19 05:00:51;;;;;;;4.05;2.88;;;19.00;81.90;;;19.28;99.68;100826.69;4968014;28;19933;-76
2022/05/19 05:03:18;;;;;;;5.68;3.30;;;19.00;81.90;;;19.30;100.00;100818.63;4968035;28;20132;-77
2022/05/19 05:05:47;;;;;;;6.93;2.70;;;19.00;82.40;;;19.37;98.78;100820.00;4967667;28;20053;-75
2022/05/19 05:08:14;;;;;;;7.90;2.97;;;19.10;82.10;;;19.36;98.44;100819.16;4972904;28;20145;-75
2022/05/19 05:10:41;;;;;;;4.15;2.60;;;19.10;82.30;;;19.37;97.85;100814.69;4966155;28;20061;-77
2022/05/19 05:13:12;;;;;;;2.60;2.40;;;19.10;82.30;;;19.41;98.66;100816.22;4987524;28;20054;-77
2022/05/19 05:15:42;;;;;;;5.22;2.70;;;19.10;82.40;;;19.45;99.99;100820.47;4987767;28;20043;-76
2022/05/19 05:18:10;;;;;;;3.65;2.83;;;19.20;82.80;;;19.43;99.04;100822.34;4987176;28;20145;-77
2022/05/19 05:20:42;;;;;;;3.38;2.40;;;19.20;82.70;;;19.53;97.46;100815.56;4987743;28;20050;-77
2022/05/19 05:23:10;;;;;;;4.30;3.55;;;19.20;82.60;;;19.59;97.84;100819.72;4980753;28;20064;-77
2022/05/19 05:25:37;;;;;;;3.70;2.63;;;19.20;82.60;;;19.61;96.63;100816.97;4967374;28;20426;-76
2022/05/19 05:28:04;;;;;;;6.30;3.00;;;19.30;82.50;;;19.63;96.88;100815.06;4955975;28;20043;-77
2022/05/19 05:30:31;;;;;;;8.85;2.58;;;19.30;82.60;;;19.72;96.21;100816.38;4938839;28;20070;-76
2022/05/19 05:33:08;;;;;;;5.90;2.40;;;19.30;82.40;;;19.78;96.35;100821.34;4971237;28;20122;-77
2022/05/19 05:35:36;;;;;;;3.20;2.50;;;19.40;82.30;;;19.75;97.43;100817.06;4971376;28;20046;-77
2022/05/19 05:38:03;;;;;;;3.22;2.70;;;19.50;83.20;;;19.86;95.81;100828.94;4970273;28;20038;-76
2022/05/19 05:40:34;;;;;;;6.15;2.80;;;19.50;82.50;;;19.95;94.10;100831.97;4970368;28;20043;-75
2022/05/19 05:43:10;;;;;;;4.47;2.60;;;19.60;82.30;;;20.00;94.45;100831.72;4970934;28;20035;-75
2022/05/19 05:45:40;;;;;;;4.57;2.67;;;19.60;82.50;;;20.04;93.20;100827.94;4970928;28;20047;-75
2022/05/19 05:48:08;;;;;;;3.70;2.58;;;19.70;82.20;;;20.10;91.58;100830.25;4955000;28;20047;-75
2022/05/19 05:50:36;;;;;;;3.85;2.70;;;19.70;81.90;;;20.10;93.27;100835.59;4970355;28;20094;-76
2022/05/19 05:53:05;;;;;;;4.15;2.83;;;19.80;82.30;;;20.18;93.22;100840.50;4972057;28;20047;-75
2022/05/19 05:55:32;;;;;;;3.55;2.60;;;19.80;82.20;;;20.28;90.51;100832.84;4954603;28;20046;-75
2022/05/19 05:58:03;;;;;;;4.10;2.53;;;19.90;81.90;;;20.29;89.35;100839.00;4970724;28;20090;-76
2022/05/19 06:00:29;;;;;;;5.77;2.83;;;19.90;81.50;;;20.28;89.62;100838.16;4971301;28;20035;-76
2022/05/19 06:02:56;;;;;;;5.45;2.55;;;20.00;81.60;;;20.34;90.66;100840.47;4971695;28;20062;-76
2022/05/19 06:05:24;;;;;;;4.10;2.95;;;20.00;81.50;;;20.42;89.78;100847.22;4970278;28;20749;-75
2022/05/19 06:07:51;;;;;;;5.20;2.45;;;20.00;81.30;;;20.40;89.46;100837.47;4971575;28;20042;-76
2022/05/19 06:10:18;;;;;;;5.40;2.47;;;20.10;81.40;;;20.46;88.79;100838.94;4970053;28;20057;-76
2022/05/19 06:12:45;;;;;;;5.47;2.92;;;20.00;81.40;;;20.55;88.86;100843.72;4969993;28;20047;-76
2022/05/19 06:15:15;;;;;;;3.88;2.58;;;20.10;81.50;;;20.55;90.14;100835.69;4970133;28;20063;-75
2022/05/19 06:17:42;;;;;;;7.78;2.80;;;20.20;81.70;;;20.61;87.00;100830.97;4969911;28;20073;-76
2022/05/19 06:20:14;;;;;;;4.43;2.70;;;20.20;81.20;;;20.67;84.53;100841.28;4969876;28;20085;-75
2022/05/19 06:22:43;;;;;;;4.68;2.45;;;20.30;80.70;;;20.74;85.82;100833.75;4971174;28;20039;-77
2022/05/19 06:25:13;;;;;;;4.88;2.55;;;20.30;81.10;;;20.84;85.59;100837.66;4970268;28;20055;-76
2022/05/19 06:27:40;;;;;;;4.80;2.42;;;20.40;81.00;;;20.86;86.67;100825.03;4969688;28;20065;-76
2022/05/19 06:30:09;;;;;;;4.07;2.40;;;20.40;81.30;;;20.94;83.98;100840.63;4953376;28;20126;-75
2022/05/19 06:32:36;;;;;;;5.32;2.92;;;20.50;80.90;;;20.99;83.08;100837.66;4953189;28;20051;-75
2022/05/19 06:35:05;;;;;;;5.60;3.08;;;20.60;80.60;;;21.05;79.04;100846.16;4969886;28;20130;-75
2022/05/19 06:37:32;;;;;;;4.10;2.30;;;20.60;79.80;;;21.11;80.31;100852.97;4969519;28;20703;-76
2022/05/19 06:39:59;;;;;;;2.78;2.10;;;20.70;80.00;;;21.15;77.28;100856.31;4968571;28;20047;-75
2022/05/19 06:42:27;;;;;;;2.50;2.20;;;20.70;79.30;;;21.25;74.59;100858.31;4969082;28;20043;-76
2022/05/19 06:45:00;;;;;;;6.55;2.35;;;20.80;78.50;;;21.30;71.98;100865.19;4954045;28;20944;-76
2022/05/19 06:47:28;;;;;;;3.50;2.30;;;20.90;78.00;;;21.36;71.63;100856.81;4970334;28;20047;-76
2022/05/19 06:49:55;;;;;;;3.95;2.50;;;21.00;77.80;;;21.42;71.33;100864.44;4970197;28;20168;-76
2022/05/19 06:52:28;;;;;;;5.43;2.38;;;21.00;77.80;;;21.48;72.33;100868.56;4969681;28;20077;-76
2022/05/19 06:54:58;;;;;;;3.75;2.45;;;21.00;77.80;;;21.60;71.75;100854.41;4970798;28;20053;-75
2022/05/19 06:57:27;;;;;;;4.18;2.40;;;21.20;77.80;;;21.68;70.23;100848.63;4969622;28;20066;-76
2022/05/19 06:59:54;;;;;;;5.97;2.72;;;21.30;77.50;;;21.75;70.29;100859.78;4969703;28;20053;-77
2022/05/19 07:02:24;;;;;;;3.47;1.95;;;21.30;77.50;;;21.84;69.51;100861.03;4969352;28;20066;-77
2022/05/19 07:04:52;;;;;;;3.08;2.00;;;21.40;77.50;;;21.85;70.16;100863.59;4971615;28;20070;-77
2022/05/19 07:07:19;;;;;;;2.88;2.00;;;21.50;77.30;;;21.96;70.28;100855.72;4969535;28;20050;-77
2022/05/19 07:09:46;;;;;;;3.53;1.85;;;21.50;77.50;;;22.06;69.69;100856.00;4970267;28;20065;-76
2022/05/19 07:12:21;;;;;;;4.30;3.00;;;21.60;77.40;;;22.10;68.89;100862.91;4977397;28;20094;-77
2022/05/19 07:14:50;;;;;;;4.28;2.50;;;21.60;77.10;;;22.20;66.98;100862.28;4969035;28;20047;-77
2022/05/19 07:17:17;;;;;;;7.93;2.40;;;21.70;76.80;;;22.23;68.34;100854.91;4969071;28;20567;-76
2022/05/19 07:22:34;;;;;;;4.50;2.45;;;21.90;77.20;;;22.32;69.06;100864.16;4968152;28;20126;-77
2022/05/19 07:25:08;;;;;;;4.47;2.50;;;21.90;77.10;;;22.39;67.69;100872.66;4968589;28;20069;-76
2022/05/19 07:27:35;;;;;;;6.60;2.60;;;22.00;76.90;;;22.36;67.67;100872.88;4969100;28;20800;-77
2022/05/19 07:30:05;;;;;;;4.20;1.95;;;22.00;76.60;;;22.52;67.02;100880.75;4970199;28;20034;-76
2022/05/19 07:32:33;;;;;;;6.17;2.57;;;22.00;76.70;;;22.62;67.85;100873.84;4953032;28;20070;-76
2022/05/19 07:35:00;;;;;;;3.50;2.35;;;22.10;77.00;;;22.72;69.13;100870.56;4952553;28;20129;-77
2022/05/19 07:37:27;;;;;;;5.20;2.72;;;22.20;77.30;;;22.75;69.02;100876.53;4968255;28;20583;-76
2022/05/19 07:39:55;;;;;;;5.05;2.60;;;22.20;77.30;;;22.83;68.52;100881.38;4968154;28;20053;-77
2022/05/19 07:42:22;;;;;;;4.85;2.35;;;22.30;77.10;;;22.86;67.34;100877.66;4968303;28;20055;-76
2022/05/19 07:44:49;;;;;;;3.72;2.25;;;22.40;76.80;;;22.95;68.00;100875.19;4968241;28;20055;-76
2022/05/19 07:47:17;;;;;;;4.63;2.50;;;22.50;77.10;;;22.98;63.22;100871.44;4968176;28;20169;-76
2022/05/19 07:49:45;;;;;;;5.28;2.47;;;22.50;76.30;;;23.09;66.11;100876.06;4967637;28;20061;-76
2022/05/19 07:52:13;;;;;;;4.78;2.85;;;22.60;77.10;;;23.07;61.38;100880.69;4966885;28;20035;-76
2022/05/19 07:54:40;;;;;;;4.97;2.40;;;22.60;75.20;;;23.15;63.76;100874.78;4968093;28;20043;-76
2022/05/19 07:57:08;;;;;;;5.22;2.20;;;22.70;75.70;;;23.18;64.86;100871.88;4970051;28;20093;-76
2022/05/19 07:59:35;;;;;;;6.32;2.83;;;22.80;76.10;;;23.28;63.18;100867.63;4970773;28;20699;-78
2022/05/19 08:02:02;;;;;;;6.43;2.90;;;22.80;75.80;;;23.39;60.66;100872.25;4968234;28;20059;-78
2022/05/19 08:04:29;;;;;;;7.15;3.70;;;22.90;75.00;;;23.49;59.13;100869.78;4968834;28;20475;-78
2022/05/19 08:06:57;;;;;;;6.03;2.40;;;23.00;74.70;;;23.60;59.14;100864.50;4969188;28;20362;-78
2022/05/19 08:18:23;;;;;;;6.32;2.63;;;23.30;74.80;;;24.00;58.50;100858.06;4967919;28;20066;-78
2022/05/19 08:21:04;;;;;;;4.32;3.00;;;23.40;74.40;;;24.14;59.86;100861.59;4967951;28;20055;-79
2022/05/19 08:23:36;;;;;;;4.47;2.25;;;23.50;74.90;;;24.18;57.13;100858.56;4967850;28;20050;-78
2022/05/19 08:26:04;;;;;;;4.93;3.20;;;23.60;74.10;;;24.21;56.52;100861.03;4967867;28;20050;-78
2022/05/19 08:28:32;;;;;;;6.35;2.47;;;23.70;73.70;;;24.41;57.52;100858.69;4951545;28;20058;-77
2022/05/19 08:31:07;;;;;;;6.68;2.75;;;23.80;74.30;;;24.53;56.49;100854.19;4967217;28;20034;-78
2022/05/19 08:33:36;;;;;;;4.45;2.60;;;23.90;73.80;;;24.60;56.09;100851.91;4967338;28;20603;-77
2022/05/19 08:36:05;;;;;;;3.42;2.60;;;24.00;73.60;;;24.78;57.15;100858.59;4967751;28;20043;-77
2022/05/19 08:38:32;;;;;;;4.35;2.67;;;24.10;74.20;;;24.91;56.52;100852.28;4968767;28;20436;-78
2022/05/19 08:41:03;;;;;;;4.88;2.35;;;24.20;74.00;;;25.04;57.23;100854.88;4967266;28;20047;-78
2022/05/19 08:44:35;;;;;;;6.53;2.60;;;24.30;74.40;;;25.19;55.55;100863.59;4983922;28;20142;-77
2022/05/19 08:47:04;;;;;;;4.30;2.50;;;24.50;73.70;;;25.24;52.84;100858.69;4936042;28;20065;-77
2022/05/19 08:49:58;;;;;;;11.80;2.88;;;24.70;72.60;;;25.26;52.38;100862.13;4951030;28;20035;-78
2022/05/19 08:52:36;;;;;;;4.80;2.38;;;24.70;72.20;;;25.44;52.96;100851.75;4952525;28;20150;-78
2022/05/19 08:55:03;;;;;;;4.88;2.67;;;24.80;73.10;;;25.58;52.96;100849.81;4952593;28;20077;-77
2022/05/19 08:57:41;;;;;;;4.65;2.28;;;24.90;72.60;;;25.69;51.29;100855.19;4967418;28;20051;-77
2022/05/19 09:00:48;;;;;;;4.88;2.60;;;25.10;71.80;;;25.79;50.58;100855.31;4983196;28;20122;-79
2022/05/19 09:03:50;;;;;;;3.17;2.40;;;25.20;71.50;;;25.94;50.52;100847.81;4953790;28;20042;-77
2022/05/19 09:10:39;;;;;;;5.38;2.42;;;25.50;71.20;;;26.24;49.94;100846.28;4971134;28;20135;-78
2022/05/19 09:13:26;;;;;;;3.70;2.50;;;25.60;71.40;;;26.32;49.94;100848.34;4970915;28;20089;-78
2022/05/19 09:15:55;;;;;;;4.93;2.53;;;25.70;71.30;;;26.31;48.91;100844.81;4971173;28;20805;-78
2022/05/19 09:18:34;;;;;;;5.70;2.70;;;25.80;70.70;;;26.39;48.60;100846.00;4971155;28;20039;-78
2022/05/19 09:21:03;;;;;;;7.80;3.05;;;25.80;70.50;;;26.40;48.51;100845.88;4971932;28;20055;-78
2022/05/19 09:23:31;;;;;;;11.52;2.90;;;25.90;70.30;;;26.47;49.18;100843.53;4989664;28;20053;-78
2022/05/19 09:26:25;;;;;;;3.78;2.60;;;25.90;70.40;;;26.57;49.15;100840.91;4942688;28;20101;-78
2022/05/19 09:29:10;;;;;;;6.18;2.67;;;26.00;70.50;;;26.64;49.26;100849.31;4998384;28;20082;-78
2022/05/19 09:32:02;;;;;;;6.57;2.53;;;26.10;70.50;;;26.63;49.95;100843.06;4974283;28;20226;-78
2022/05/19 09:34:30;;;;;;;4.80;3.10;;;26.10;70.60;;;26.63;50.04;100836.81;4972390;28;20778;-78
2022/05/19 09:37:14;;;;;;;6.03;3.20;;;26.10;70.60;;;26.65;50.26;100835.69;4956911;28;20137;-76
2022/05/19 09:39:53;;;;;;;5.18;2.58;;;26.20;70.80;;;26.71;49.20;100835.19;4971765;28;20089;-78
2022/05/19 09:42:31;;;;;;;5.22;3.05;;;26.20;70.40;;;26.87;49.61;100833.91;4970762;28;20113;-78
2022/05/19 09:44:58;;;;;;;6.15;2.97;;;26.30;70.60;;;26.93;50.15;100832.47;4971474;28;20074;-77
2022/05/19 09:47:35;;;;;;;4.65;2.90;;;26.40;70.80;;;27.11;50.50;100827.34;4993648;28;20271;-79
2022/05/19 09:50:18;;;;;;;4.68;3.00;;;26.40;71.20;;;27.22;47.79;100815.59;4973652;28;20093;-78
2022/05/19 09:52:46;;;;;;;4.25;2.78;;;26.60;70.00;;;27.38;47.98;100810.53;4971816;28;20046;-78
2022/05/19 09:55:19;;;;;;;4.20;3.17;;;26.70;70.10;;;27.38;47.58;100817.81;4974712;28;20082;-79
2022/05/19 09:58:00;;;;;;;6.38;2.65;;;26.80;69.60;;;27.44;47.40;100811.84;4972697;28;20058;-78
2022/05/19 10:00:56;;;;;;;6.60;3.22;;;26.90;69.60;;;27.63;46.57;100804.81;4971613;28;20042;-79
2022/05/19 10:03:54;;;;;;;5.57;3.00;;;27.00;69.40;;;27.59;48.20;100802.41;4973501;28;20057;-79
2022/05/19 10:06:33;;;;;;;7.35;3.30;;;27.00;70.10;;;27.67;47.62;100803.56;4973881;28;20089;-79
2022/05/19 10:09:15;;;;;;;5.57;3.58;;;27.10;69.60;;;27.79;47.85;100799.78;4975326;28;20149;-79
2022/05/19 10:11:55;;;;;;;4.20;2.88;;;27.20;69.90;;;27.84;46.50;100788.50;4973431;28;20047;-78
2022/05/19 10:14:31;;;;;;;5.18;2.90;;;27.20;68.90;;;28.01;46.23;100785.13;4973105;28;20121;-78
2022/05/19 10:17:02;;;;;;;6.10;3.58;;;27.40;68.90;;;28.08;47.24;100782.69;4974568;28;20071;-79
2022/05/19 10:19:50;;;;;;;4.93;2.60;;;27.50;69.50;;;28.31;46.63;100790.59;4993172;28;20089;-78
2022/05/19 10:22:34;;;;;;;8.32;3.15;;;27.60;69.40;;;28.31;46.41;100791.41;4971652;28;20057;-77
2022/05/19 10:25:34;;;;;;;4.93;2.67;;;27.70;69.00;;;28.37;46.35;100787.28;4973318;28;20058;-77
2022/05/19 10:32:03;;;;;;;4.05;3.22;;;27.90;69.40;;;28.63;45.81;100791.25;4970059;28;20070;-77
2022/05/19 10:35:07;;;;;;;7.35;3.50;;;28.00;68.70;;;28.77;46.10;100785.38;4970980;28;20046;-77
2022/05/19 10:38:10;;;;;;;5.05;3.25;;;28.10;69.00;;;28.87;45.39;100771.84;4970413;28;20051;-78
2022/05/19 10:40:58;;;;;;;3.50;2.90;;;28.20;68.50;;;28.98;45.44;100765.41;4965890;28;20055;-77
2022/05/19 10:44:06;;;;;;;5.28;3.28;;;28.20;68.80;;;29.19;45.65;100769.75;4970469;28;20053;-77
2022/05/19 10:46:54;;;;;;;4.40;3.13;;;28.40;69.10;;;29.39;43.22;100771.34;4969604;28;20035;-77
2022/05/19 10:49:36;;;;;;;5.38;3.55;;;28.40;67.50;;;29.35;42.91;100771.78;4953933;28;20504;-77
2022/05/19 10:52:54;;;;;;;6.10;3.42;;;28.80;67.00;;;29.62;43.36;100770.09;4969116;28;20076;-77
2022/05/19 10:56:12;;;;;;;6.78;3.10;;;28.80;68.10;;;29.82;43.46;100765.41;4953914;28;20073;-77
2022/05/19 10:59:07;;;;;;;7.72;3.40;;;29.00;67.90;;;29.93;42.42;100757.06;4969988;28;20042;-77
2022/05/19 11:01:55;;;;;;;5.68;2.83;;;29.20;66.80;;;30.04;41.07;100765.97;4968732;28;20042;-77